createdAt,value
2017-12-31T00:00:04.467Z,3.87
2017-12-31T00:02:31.935Z,5.68
2017-12-31T00:04:59.434Z,4.27
2017-12-31T00:07:27.068Z,3.93
2017-12-31T00:09:54.584Z,3.73
2017-12-31T00:12:22.084Z,4.83
2017-12-31T00:14:50.227Z,1.62
2017-12-31T00:17:17.702Z,1.53
2017-12-31T00:19:45.211Z,1.10
2017-12-31T00:22:12.778Z,1.52
2017-12-31T00:24:40.221Z,3.45
2017-12-31T00:27:07.983Z,1.13
2017-12-31T00:29:35.408Z,2.07
2017-12-31T00:32:04.537Z,3.60
2017-12-31T00:34:32.058Z,0.97
2017-12-31T00:37:00.312Z,2.60
2017-12-31T00:39:28.656Z,2.00
2017-12-31T00:41:56.129Z,1.40
2017-12-31T00:44:23.647Z,0.90
2017-12-31T00:46:55.698Z,0.90
2017-12-31T00:49:23.853Z,2.43
2017-12-31T00:51:51.326Z,2.67
2017-12-31T00:54:19.613Z,6.00
2017-12-31T00:56:47.375Z,1.67
2017-12-31T00:59:14.868Z,1.43
2017-12-31T01:01:46.900Z,2.50
2017-12-31T01:04:14.387Z,0.60
2017-12-31T01:06:42.072Z,1.30
2017-12-31T01:09:09.546Z,1.50
2017-12-31T01:11:37.654Z,2.05
2017-12-31T01:14:05.087Z,2.00
2017-12-31T01:16:32.612Z,4.20
2017-12-31T01:19:00.146Z,4.80
2017-12-31T01:21:28.275Z,3.40
2017-12-31T01:23:55.777Z,2.28
2017-12-31T01:26:23.244Z,2.97
2017-12-31T01:28:51.611Z,3.20
2017-12-31T01:31:19.081Z,2.33
2017-12-31T01:33:46.565Z,3.58
2017-12-31T01:36:14.029Z,1.00
2017-12-31T01:38:41.832Z,1.83
2017-12-31T01:41:09.273Z,2.83
2017-12-31T01:43:36.716Z,1.23
2017-12-31T01:46:05.011Z,8.43
2017-12-31T01:48:36.536Z,1.20
2017-12-31T01:51:04.184Z,1.13
2017-12-31T01:53:31.615Z,3.73
2017-12-31T01:55:59.992Z,0.80
2017-12-31T01:58:27.434Z,1.10
2017-12-31T02:00:54.904Z,0.90
2017-12-31T02:03:29.765Z,1.20
2017-12-31T02:05:57.247Z,1.00
2017-12-31T02:08:25.764Z,2.05
2017-12-31T02:10:53.244Z,1.52
2017-12-31T02:13:20.922Z,3.27
2017-12-31T02:15:48.405Z,1.20
2017-12-31T02:18:19.214Z,1.33
2017-12-31T02:20:46.673Z,1.60
2017-12-31T02:23:14.464Z,4.05
2017-12-31T02:25:41.905Z,1.90
2017-12-31T02:28:09.369Z,1.57
2017-12-31T02:30:36.829Z,0.97
2017-12-31T02:33:08.561Z,3.40
2017-12-31T02:35:36.000Z,2.20
2017-12-31T02:38:03.985Z,1.20
2017-12-31T02:40:31.449Z,2.60
2017-12-31T02:42:58.888Z,0.97
2017-12-31T02:45:26.376Z,2.20
2017-12-31T02:47:53.827Z,2.87
2017-12-31T02:50:21.648Z,2.93
2017-12-31T02:52:49.092Z,5.20
2017-12-31T02:55:16.548Z,1.37
2017-12-31T02:57:44.016Z,2.30
2017-12-31T03:00:12.396Z,1.45
2017-12-31T03:02:39.879Z,1.63
2017-12-31T03:05:07.316Z,1.90
2017-12-31T03:07:34.776Z,3.75
2017-12-31T03:10:02.240Z,1.52
2017-12-31T03:12:29.731Z,4.70
2017-12-31T03:14:57.189Z,1.60
2017-12-31T03:17:24.630Z,1.27
2017-12-31T03:19:52.105Z,1.33
2017-12-31T03:22:21.127Z,1.73
2017-12-31T03:24:48.739Z,4.97
2017-12-31T03:27:16.206Z,3.00
2017-12-31T03:29:43.708Z,4.10
2017-12-31T03:32:11.264Z,4.03
2017-12-31T03:34:38.841Z,2.17
2017-12-31T03:37:06.326Z,4.50
2017-12-31T03:39:34.249Z,5.18
2017-12-31T03:42:01.708Z,10.73
2017-12-31T03:44:29.177Z,8.57
2017-12-31T03:46:56.795Z,1.50
2017-12-31T03:49:28.031Z,3.13
2017-12-31T03:51:55.544Z,9.40
2017-12-31T03:54:24.460Z,10.60
2017-12-31T03:56:51.911Z,4.17
2017-12-31T03:59:19.376Z,3.93
2017-12-31T04:01:46.862Z,7.83
2017-12-31T04:04:14.307Z,6.37
2017-12-31T04:06:46.091Z,4.40
2017-12-31T04:09:13.556Z,4.53
2017-12-31T04:11:41.034Z,9.38
2017-12-31T04:14:08.472Z,5.65
2017-12-31T04:16:36.128Z,7.25
2017-12-31T04:19:04.471Z,5.97
2017-12-31T04:21:32.090Z,12.37
2017-12-31T04:23:59.568Z,8.20
2017-12-31T04:26:27.029Z,6.40
2017-12-31T04:28:54.495Z,5.70
2017-12-31T04:31:21.957Z,7.45
2017-12-31T04:33:49.439Z,8.27
2017-12-31T04:36:16.875Z,4.33
2017-12-31T04:38:44.404Z,4.63
2017-12-31T04:41:11.866Z,6.78
2017-12-31T04:43:40.036Z,10.06
2017-12-31T04:46:07.519Z,4.80
2017-12-31T04:48:34.980Z,9.43
2017-12-31T04:51:07.032Z,2.87
2017-12-31T04:53:35.023Z,8.88
2017-12-31T04:56:02.460Z,3.60
2017-12-31T04:58:29.938Z,10.13
2017-12-31T05:00:57.376Z,8.93
2017-12-31T05:03:24.864Z,9.50
2017-12-31T05:05:56.881Z,8.33
2017-12-31T05:08:24.384Z,7.62
2017-12-31T05:10:51.855Z,8.13
2017-12-31T05:13:19.304Z,7.17
2017-12-31T05:15:46.843Z,8.10
2017-12-31T05:18:14.316Z,7.68
2017-12-31T05:20:42.078Z,6.37
2017-12-31T05:23:09.540Z,3.00
2017-12-31T05:25:36.987Z,3.00
2017-12-31T05:28:04.471Z,3.78
2017-12-31T05:30:33.611Z,2.60
2017-12-31T05:33:01.071Z,3.57
2017-12-31T05:35:28.544Z,5.30
2017-12-31T05:37:56.026Z,3.43
2017-12-31T05:40:24.250Z,10.30
2017-12-31T05:42:52.553Z,3.45
2017-12-31T05:45:20.008Z,3.17
2017-12-31T05:47:47.644Z,2.40
2017-12-31T05:50:15.225Z,6.57
2017-12-31T05:52:46.067Z,1.35
2017-12-31T05:55:13.523Z,6.57
2017-12-31T05:57:41.260Z,1.80
2017-12-31T06:00:08.804Z,1.93
2017-12-31T06:02:36.268Z,5.60
2017-12-31T06:05:03.736Z,5.83
2017-12-31T06:07:31.178Z,2.90
2017-12-31T06:09:58.648Z,5.55
2017-12-31T06:12:26.088Z,5.03
2017-12-31T06:14:53.583Z,1.87
2017-12-31T06:17:21.056Z,1.55
2017-12-31T06:19:48.500Z,1.83
2017-12-31T06:22:16.021Z,4.40
2017-12-31T06:24:44.840Z,4.78
2017-12-31T06:27:12.312Z,2.53
2017-12-31T06:29:39.797Z,3.57
2017-12-31T06:32:07.261Z,3.90
2017-12-31T06:34:34.708Z,1.70
2017-12-31T06:37:06.452Z,8.73
2017-12-31T06:39:33.912Z,5.90
2017-12-31T06:42:01.381Z,3.75
2017-12-31T06:44:28.827Z,3.55
2017-12-31T06:46:56.274Z,5.47
2017-12-31T06:49:23.774Z,1.80
2017-12-31T06:51:51.222Z,3.87
2017-12-31T06:54:18.696Z,2.72
2017-12-31T06:56:47.708Z,2.75
2017-12-31T06:59:15.167Z,5.10
2017-12-31T07:01:42.648Z,3.23
2017-12-31T07:04:10.119Z,4.03
2017-12-31T07:06:38.336Z,3.43
2017-12-31T07:09:05.856Z,4.62
2017-12-31T07:11:33.449Z,3.90
2017-12-31T07:14:00.969Z,2.40
2017-12-31T07:16:28.424Z,1.30
2017-12-31T07:18:57.033Z,3.30
2017-12-31T07:21:25.228Z,1.85
2017-12-31T07:23:52.685Z,1.33
2017-12-31T07:26:20.186Z,3.25
2017-12-31T07:28:47.632Z,3.10
2017-12-31T07:31:15.111Z,1.35
2017-12-31T07:33:42.556Z,1.93
2017-12-31T07:36:10.033Z,2.33
2017-12-31T07:38:49.171Z,5.03
2017-12-31T07:41:16.615Z,3.07
2017-12-31T07:43:44.360Z,2.50
2017-12-31T07:46:11.880Z,2.40
2017-12-31T07:48:40.031Z,3.17
2017-12-31T07:51:08.252Z,4.00
2017-12-31T07:53:39.480Z,2.73
2017-12-31T07:56:06.973Z,1.83
2017-12-31T07:58:35.516Z,4.85
2017-12-31T08:01:02.977Z,3.50
2017-12-31T08:03:30.459Z,1.47
2017-12-31T08:05:58.129Z,3.40
2017-12-31T08:08:25.575Z,5.47
2017-12-31T08:10:53.043Z,3.12
2017-12-31T08:13:20.576Z,7.70
2017-12-31T08:15:48.608Z,1.67
2017-12-31T08:18:16.052Z,1.70
2017-12-31T08:20:43.595Z,2.50
2017-12-31T08:23:11.046Z,2.17
2017-12-31T08:25:41.576Z,4.65
2017-12-31T08:28:09.015Z,1.63
2017-12-31T08:30:36.492Z,6.37
2017-12-31T08:33:03.948Z,9.90
2017-12-31T08:35:31.410Z,2.08
2017-12-31T08:37:58.848Z,3.67
2017-12-31T08:40:30.926Z,2.47
2017-12-31T08:42:58.408Z,2.13
2017-12-31T08:45:25.864Z,2.20
2017-12-31T08:47:53.329Z,1.43
2017-12-31T08:50:20.819Z,3.07
2017-12-31T08:52:48.320Z,3.42
2017-12-31T08:55:19.470Z,1.97
2017-12-31T08:57:47.006Z,3.93
2017-12-31T09:00:14.575Z,3.00
2017-12-31T09:02:42.044Z,2.17
2017-12-31T09:05:09.490Z,1.50
2017-12-31T09:07:36.972Z,6.00
2017-12-31T09:10:04.601Z,2.47
2017-12-31T09:12:32.044Z,2.90
2017-12-31T09:14:59.643Z,4.80
2017-12-31T09:17:27.123Z,3.83
2017-12-31T09:19:55.171Z,2.42
2017-12-31T09:22:22.628Z,4.95
2017-12-31T09:24:59.528Z,2.47
2017-12-31T09:27:26.980Z,3.65
2017-12-31T09:29:54.439Z,3.33
2017-12-31T09:32:21.916Z,3.70
2017-12-31T09:34:49.376Z,2.08
2017-12-31T09:37:17.037Z,1.77
2017-12-31T09:39:44.851Z,6.20
2017-12-31T09:42:13.097Z,5.37
2017-12-31T09:44:40.635Z,1.30
2017-12-31T09:47:08.077Z,4.67
2017-12-31T09:49:35.580Z,3.72
2017-12-31T09:52:03.992Z,4.85
2017-12-31T09:54:31.412Z,4.40
2017-12-31T09:56:58.872Z,5.10
2017-12-31T09:59:26.319Z,2.00
2017-12-31T10:01:53.916Z,3.80
2017-12-31T10:04:21.371Z,2.50
2017-12-31T10:06:49.595Z,2.65
2017-12-31T10:09:17.436Z,2.85
2017-12-31T10:11:44.919Z,3.27
2017-12-31T10:14:12.367Z,2.73
2017-12-31T10:16:39.891Z,5.50
2017-12-31T10:19:07.760Z,6.03
2017-12-31T10:21:35.203Z,4.50
2017-12-31T10:24:02.680Z,3.00
2017-12-31T10:26:33.599Z,3.50
2017-12-31T10:29:01.263Z,4.93
2017-12-31T10:31:28.793Z,5.72
2017-12-31T10:33:56.277Z,9.10
2017-12-31T10:36:23.746Z,2.60
2017-12-31T10:38:51.188Z,2.90
2017-12-31T10:41:22.095Z,3.83
2017-12-31T10:43:49.548Z,5.07
2017-12-31T10:46:17.196Z,4.23
2017-12-31T10:48:46.004Z,6.30
2017-12-31T10:51:13.493Z,2.30
2017-12-31T10:53:40.928Z,3.33
2017-12-31T10:56:08.372Z,4.67
2017-12-31T10:58:35.844Z,2.20
2017-12-31T11:01:03.291Z,3.78
2017-12-31T11:03:30.783Z,6.70
2017-12-31T11:05:58.263Z,2.75
2017-12-31T11:08:25.761Z,7.90
2017-12-31T11:10:53.686Z,2.00
2017-12-31T11:13:21.174Z,3.17
2017-12-31T11:15:48.643Z,6.87
2017-12-31T11:18:16.092Z,4.10
2017-12-31T11:20:43.603Z,8.73
2017-12-31T11:23:11.106Z,3.60
2017-12-31T11:25:38.820Z,2.75
2017-12-31T11:28:07.092Z,4.15
2017-12-31T11:30:34.553Z,17.75
2017-12-31T11:33:02.006Z,5.80
2017-12-31T11:35:29.717Z,2.30
2017-12-31T11:37:57.198Z,3.72
2017-12-31T11:40:24.644Z,6.62
2017-12-31T11:42:52.087Z,7.33
2017-12-31T11:45:19.598Z,2.10
2017-12-31T11:47:47.809Z,3.10
2017-12-31T11:50:16.406Z,5.93
2017-12-31T11:52:43.915Z,3.97
2017-12-31T11:55:11.421Z,2.10
2017-12-31T11:57:38.859Z,6.03
2017-12-31T12:00:06.572Z,4.53
2017-12-31T12:02:34.563Z,2.95
2017-12-31T12:05:02.032Z,6.62
2017-12-31T12:07:29.476Z,4.37
2017-12-31T12:09:57.293Z,3.13
2017-12-31T12:12:24.784Z,4.70
2017-12-31T12:14:52.267Z,3.27
2017-12-31T12:17:20.019Z,1.43
2017-12-31T12:19:47.532Z,5.60
2017-12-31T12:22:14.978Z,1.85
2017-12-31T12:24:43.783Z,5.65
2017-12-31T12:27:11.241Z,1.50
2017-12-31T12:29:42.505Z,7.28
2017-12-31T12:32:10.193Z,4.33
2017-12-31T12:34:37.632Z,4.30
2017-12-31T12:37:05.102Z,9.57
2017-12-31T12:39:33.325Z,5.67
2017-12-31T12:42:00.789Z,2.50
2017-12-31T12:44:28.220Z,5.35
2017-12-31T12:46:55.683Z,4.30
2017-12-31T12:49:24.015Z,6.60
2017-12-31T12:51:51.634Z,3.72
2017-12-31T12:54:19.071Z,3.23
2017-12-31T12:56:47.299Z,3.13
2017-12-31T12:59:14.842Z,3.37
2017-12-31T13:01:42.520Z,1.92
2017-12-31T13:04:11.680Z,6.47
2017-12-31T13:06:39.933Z,4.80
2017-12-31T13:09:08.975Z,10.70
2017-12-31T13:11:36.415Z,3.20
2017-12-31T13:14:07.558Z,6.37
2017-12-31T13:16:36.731Z,4.00
2017-12-31T13:19:04.193Z,1.60
2017-12-31T13:21:31.689Z,5.90
2017-12-31T13:23:59.140Z,4.33
2017-12-31T13:26:26.674Z,3.70
2017-12-31T13:28:55.617Z,8.55
2017-12-31T13:31:26.424Z,3.97
2017-12-31T13:33:53.864Z,3.23
2017-12-31T13:36:21.352Z,6.67
2017-12-31T13:38:50.524Z,3.12
2017-12-31T13:41:17.981Z,3.13
2017-12-31T13:43:45.473Z,3.10
2017-12-31T13:46:12.912Z,7.07
2017-12-31T13:48:40.554Z,3.03
2017-12-31T13:51:07.983Z,2.72
2017-12-31T13:53:35.517Z,2.70
2017-12-31T13:56:03.675Z,3.72
2017-12-31T13:58:31.180Z,3.80
2017-12-31T14:00:58.698Z,3.00
2017-12-31T14:03:26.182Z,2.53
2017-12-31T14:05:53.658Z,8.60
2017-12-31T14:08:21.108Z,3.43
2017-12-31T14:10:48.552Z,4.33
2017-12-31T14:13:16.836Z,3.00
2017-12-31T14:15:47.911Z,2.67
2017-12-31T14:18:15.390Z,4.93
2017-12-31T14:20:42.883Z,3.30
2017-12-31T14:23:10.365Z,9.40
2017-12-31T14:25:38.050Z,4.53
2017-12-31T14:28:05.528Z,10.20
2017-12-31T14:30:33.265Z,11.70
2017-12-31T14:33:02.099Z,4.28
2017-12-31T14:35:29.535Z,3.17
2017-12-31T14:37:56.994Z,2.97
2017-12-31T14:40:24.639Z,4.77
2017-12-31T14:42:52.164Z,5.20
2017-12-31T14:45:25.235Z,9.88
2017-12-31T14:47:52.692Z,9.18
2017-12-31T14:50:21.076Z,2.80
2017-12-31T14:52:48.536Z,3.70
2017-12-31T14:55:15.984Z,3.50
2017-12-31T14:57:43.627Z,15.83
2017-12-31T15:00:11.150Z,2.97
2017-12-31T15:02:46.079Z,6.87
2017-12-31T15:05:13.561Z,2.23
2017-12-31T15:07:41.148Z,6.07
2017-12-31T15:10:08.665Z,4.53
2017-12-31T15:12:36.170Z,4.23
2017-12-31T15:15:06.037Z,5.80
2017-12-31T15:17:34.781Z,3.65
2017-12-31T15:20:02.601Z,3.40
2017-12-31T15:22:30.051Z,5.30
2017-12-31T15:24:57.559Z,3.20
2017-12-31T15:27:25.772Z,4.97
2017-12-31T15:29:53.278Z,6.00
2017-12-31T15:32:20.755Z,11.48
2017-12-31T15:34:49.430Z,5.70
2017-12-31T15:37:17.131Z,6.90
2017-12-31T15:39:44.582Z,7.40
2017-12-31T15:42:12.077Z,7.00
2017-12-31T15:44:39.709Z,5.60
2017-12-31T15:47:11.629Z,12.23
2017-12-31T15:49:39.110Z,9.30
2017-12-31T15:52:06.618Z,4.60
2017-12-31T15:54:34.454Z,3.87
2017-12-31T15:57:01.898Z,7.57
2017-12-31T15:59:29.413Z,5.90
2017-12-31T16:01:56.874Z,8.40
2017-12-31T16:04:24.373Z,4.90
2017-12-31T16:06:53.404Z,5.32
2017-12-31T16:09:20.916Z,3.95
2017-12-31T16:11:48.520Z,3.83
2017-12-31T16:14:16.002Z,4.95
2017-12-31T16:16:47.266Z,5.80
2017-12-31T16:19:14.771Z,5.80
2017-12-31T16:21:42.257Z,7.90
2017-12-31T16:24:09.791Z,6.53
2017-12-31T16:26:37.283Z,7.40
2017-12-31T16:29:06.496Z,9.27
2017-12-31T16:31:34.943Z,8.73
2017-12-31T16:34:02.422Z,13.00
2017-12-31T16:36:29.923Z,12.10
2017-12-31T16:38:57.523Z,9.80
2017-12-31T16:41:25.131Z,11.97
2017-12-31T16:43:52.633Z,9.70
2017-12-31T16:46:20.670Z,9.18
2017-12-31T16:48:48.161Z,9.50
2017-12-31T16:51:15.620Z,11.10
2017-12-31T16:53:43.089Z,10.83
2017-12-31T16:56:10.531Z,11.98
2017-12-31T16:58:37.988Z,13.67
2017-12-31T17:01:05.453Z,9.03
2017-12-31T17:03:32.888Z,12.13
2017-12-31T17:06:00.535Z,11.65
2017-12-31T17:08:28.461Z,17.00
2017-12-31T17:10:55.936Z,10.33
2017-12-31T17:13:23.590Z,9.17
2017-12-31T17:15:51.075Z,9.80
2017-12-31T17:18:21.955Z,11.40
2017-12-31T17:20:49.438Z,10.73
2017-12-31T17:23:17.851Z,10.60
2017-12-31T17:25:45.333Z,11.70
2017-12-31T17:28:12.834Z,10.37
2017-12-31T17:30:41.157Z,12.50
2017-12-31T17:33:12.030Z,13.02
2017-12-31T17:35:39.671Z,19.10
2017-12-31T17:38:07.665Z,17.70
2017-12-31T17:40:35.127Z,16.87
2017-12-31T17:43:03.408Z,18.87
2017-12-31T17:45:32.598Z,12.30
2017-12-31T17:48:00.205Z,15.70
2017-12-31T17:50:27.689Z,14.70
2017-12-31T17:52:55.263Z,12.70
2017-12-31T17:55:22.732Z,11.60
2017-12-31T17:57:50.381Z,16.92
2017-12-31T18:00:17.897Z,19.80
2017-12-31T18:02:46.809Z,15.38
2017-12-31T18:05:14.275Z,15.73
2017-12-31T18:07:41.772Z,11.27
2017-12-31T18:10:09.253Z,14.07
2017-12-31T18:12:37.482Z,11.65
2017-12-31T18:15:05.131Z,18.73
2017-12-31T18:17:32.639Z,13.07
2017-12-31T18:20:00.109Z,17.03
2017-12-31T18:22:27.580Z,16.30
2017-12-31T18:24:55.054Z,11.30
2017-12-31T18:27:22.583Z,15.07
2017-12-31T18:29:50.054Z,13.40
2017-12-31T18:32:17.601Z,16.07
2017-12-31T18:34:49.400Z,15.37
2017-12-31T18:37:16.888Z,16.20
2017-12-31T18:39:44.539Z,12.30
2017-12-31T18:44:45.756Z,16.37
2017-12-31T18:47:14.150Z,14.73
2017-12-31T18:49:41.675Z,11.33
2017-12-31T18:52:09.164Z,9.27
2017-12-31T18:54:36.759Z,11.68
2017-12-31T18:57:04.283Z,13.73
2017-12-31T18:59:31.810Z,8.50
2017-12-31T19:01:59.393Z,9.40
2017-12-31T19:04:28.410Z,9.30
2017-12-31T19:06:55.840Z,11.73
2017-12-31T19:09:23.313Z,12.63
2017-12-31T19:11:50.780Z,15.85
2017-12-31T19:14:18.298Z,18.00
2017-12-31T19:16:45.938Z,33.03
2017-12-31T19:19:14.168Z,26.40
2017-12-31T19:21:41.678Z,27.93
2017-12-31T19:24:09.911Z,23.87
2017-12-31T19:26:37.376Z,17.83
2017-12-31T19:29:04.885Z,15.80
2017-12-31T19:31:32.490Z,16.97
2017-12-31T19:34:00.819Z,16.10
2017-12-31T19:36:28.323Z,27.30
2017-12-31T19:38:55.845Z,18.37
2017-12-31T19:41:23.363Z,15.70
2017-12-31T19:43:51.147Z,17.17
2017-12-31T19:46:18.908Z,15.23
2017-12-31T19:48:46.379Z,13.63
2017-12-31T19:51:14.600Z,17.25
2017-12-31T19:53:42.110Z,17.23
2017-12-31T19:56:09.637Z,18.03
2017-12-31T19:58:37.133Z,18.85
2017-12-31T20:01:04.616Z,21.37
2017-12-31T20:03:32.317Z,22.03
2017-12-31T20:05:59.982Z,19.07
2017-12-31T20:08:28.442Z,20.62
2017-12-31T20:10:56.056Z,22.37
2017-12-31T20:13:23.888Z,24.60
2017-12-31T20:15:51.418Z,25.40
2017-12-31T20:18:18.927Z,34.33
2017-12-31T20:20:46.368Z,26.40
2017-12-31T20:23:13.957Z,25.92
2017-12-31T20:25:42.506Z,20.80
2017-12-31T20:28:10.044Z,22.57
2017-12-31T20:30:37.574Z,29.10
2017-12-31T20:33:05.468Z,30.33
2017-12-31T20:35:32.988Z,30.00
2017-12-31T20:38:01.301Z,42.72
2017-12-31T20:40:28.961Z,29.30
2017-12-31T20:42:57.183Z,29.80
2017-12-31T20:45:24.748Z,26.75
2017-12-31T20:47:52.208Z,21.50
2017-12-31T20:50:20.248Z,19.73
2017-12-31T20:52:48.500Z,25.43
2017-12-31T20:55:16.057Z,19.00
2017-12-31T20:57:43.690Z,23.43
2017-12-31T21:00:11.210Z,18.52
2017-12-31T21:02:39.517Z,25.20
2017-12-31T21:05:07.047Z,19.60
2017-12-31T21:07:34.514Z,20.27
2017-12-31T21:10:01.948Z,20.57
2017-12-31T21:12:29.511Z,17.40
2017-12-31T21:14:56.969Z,15.70
2017-12-31T21:17:25.250Z,15.07
2017-12-31T21:19:53.054Z,14.94
2017-12-31T21:22:27.533Z,16.95
2017-12-31T21:24:55.058Z,16.80
2017-12-31T21:27:22.558Z,12.60
2017-12-31T21:29:50.811Z,12.52
2017-12-31T21:32:18.561Z,12.10
2017-12-31T21:34:46.044Z,11.33
2017-12-31T21:37:13.538Z,11.33
2017-12-31T21:39:41.109Z,14.48
2017-12-31T21:42:08.622Z,10.10
2017-12-31T21:44:36.194Z,10.00
2017-12-31T21:47:03.624Z,14.50
2017-12-31T21:49:32.027Z,10.15
2017-12-31T21:51:59.515Z,12.63
2017-12-31T21:54:26.990Z,16.47
2017-12-31T21:56:54.551Z,11.03
2017-12-31T21:59:22.066Z,19.67
2017-12-31T22:01:49.567Z,18.90
2017-12-31T22:04:17.038Z,20.23
2017-12-31T22:06:46.930Z,17.73
2017-12-31T22:09:16.173Z,19.80
2017-12-31T22:11:43.693Z,17.90
2017-12-31T22:14:11.120Z,15.80
2017-12-31T22:16:38.684Z,19.53
2017-12-31T22:19:06.396Z,14.67
2017-12-31T22:21:33.903Z,17.17
2017-12-31T22:24:01.395Z,18.67
2017-12-31T22:26:29.045Z,13.97
2017-12-31T22:28:56.561Z,14.13
2017-12-31T22:31:24.569Z,11.45
2017-12-31T22:33:52.057Z,12.00
2017-12-31T22:36:19.580Z,11.00
2017-12-31T22:38:51.290Z,9.43
2017-12-31T22:41:19.724Z,14.60
2017-12-31T22:43:47.180Z,17.77
2017-12-31T22:46:14.740Z,13.77
2017-12-31T22:48:42.255Z,15.83
2017-12-31T22:51:09.734Z,17.97
2017-12-31T22:53:40.335Z,22.47
2017-12-31T22:56:07.984Z,22.87
2017-12-31T22:58:35.503Z,21.30
2017-12-31T23:01:04.231Z,13.70
2017-12-31T23:03:31.736Z,34.60
2017-12-31T23:05:59.221Z,78.43
2017-12-31T23:08:30.047Z,239.57
2017-12-31T23:10:57.559Z,167.62
2017-12-31T23:13:25.925Z,176.50
2017-12-31T23:15:54.169Z,182.32
2017-12-31T23:18:21.687Z,193.20
2017-12-31T23:20:49.194Z,196.87
2017-12-31T23:23:17.628Z,450.10
2017-12-31T23:25:48.599Z,238.10
2017-12-31T23:28:16.135Z,251.40
2017-12-31T23:30:43.767Z,195.27
2017-12-31T23:33:11.220Z,136.63
2017-12-31T23:35:38.668Z,122.95
2017-12-31T23:38:07.051Z,114.82
2017-12-31T23:40:35.578Z,95.20
2017-12-31T23:43:03.039Z,81.30
2017-12-31T23:45:31.310Z,72.68
2017-12-31T23:47:58.815Z,60.60
2017-12-31T23:50:27.098Z,59.17
2017-12-31T23:52:54.622Z,45.93
2017-12-31T23:55:22.204Z,45.73
2017-12-31T23:57:50.729Z,40.47
